createdAt,value
2019-04-04T00:00:27.504Z,98928.00
2019-04-04T00:02:55.570Z,98932.00
2019-04-04T00:05:25.611Z,98936.00
2019-04-04T00:07:53.583Z,98938.00
2019-04-04T00:10:21.480Z,98941.00
2019-04-04T00:12:49.417Z,98927.00
2019-04-04T00:15:17.359Z,98921.00
2019-04-04T00:17:45.307Z,98912.00
2019-04-04T00:20:13.345Z,98901.00
2019-04-04T00:22:41.289Z,98893.00
2019-04-04T00:25:10.402Z,98915.00
2019-04-04T00:27:38.507Z,98927.00
2019-04-04T00:30:07.047Z,98930.00
2019-04-04T00:32:34.966Z,98929.00
2019-04-04T00:35:02.980Z,98919.00
2019-04-04T00:37:30.899Z,98927.00
2019-04-04T00:39:58.806Z,98927.00
2019-04-04T00:42:26.656Z,98921.00
2019-04-04T00:44:55.732Z,98919.00
2019-04-04T00:47:24.216Z,98915.00
2019-04-04T00:50:00.303Z,98911.00
2019-04-04T00:52:32.776Z,98906.00
2019-04-04T00:55:08.431Z,98910.00
2019-04-04T00:57:40.231Z,98907.00
2019-04-04T01:00:14.331Z,98901.00
2019-04-04T01:02:59.013Z,98908.00
2019-04-04T01:05:34.029Z,98905.00
2019-04-04T01:08:10.211Z,98910.00
2019-04-04T01:10:44.240Z,98913.00
2019-04-04T01:13:15.567Z,98908.00
2019-04-04T01:15:44.420Z,98903.00
2019-04-04T01:18:13.508Z,98909.00
2019-04-04T01:20:41.657Z,98903.00
2019-04-04T01:23:09.709Z,98905.00
2019-04-04T01:25:46.489Z,98906.00
2019-04-04T01:28:14.418Z,98887.00
2019-04-04T01:30:43.685Z,98886.00
2019-04-04T01:33:12.292Z,98887.00
2019-04-04T01:35:40.211Z,98878.00
2019-04-04T01:38:08.207Z,98852.00
2019-04-04T01:40:36.180Z,98836.00
2019-04-04T01:43:04.354Z,98829.00
2019-04-04T01:45:32.360Z,98834.00
2019-04-04T01:48:00.318Z,98829.00
2019-04-04T01:50:28.258Z,98827.00
2019-04-04T01:52:58.818Z,98833.00
2019-04-04T01:55:26.370Z,98821.00
2019-04-04T01:57:54.594Z,98815.00
2019-04-04T02:00:24.039Z,98806.00
2019-04-04T02:02:52.535Z,98809.00
2019-04-04T02:05:21.646Z,98817.00
2019-04-04T02:07:50.092Z,98802.00
2019-04-04T02:10:18.261Z,98793.00
2019-04-04T02:12:46.197Z,98796.00
2019-04-04T02:15:14.844Z,98793.00
2019-04-04T02:17:43.092Z,98796.00
2019-04-04T02:20:11.224Z,98814.00
2019-04-04T02:22:39.206Z,98812.00
2019-04-04T02:25:08.075Z,98819.00
2019-04-04T02:27:37.901Z,98830.00
2019-04-04T02:30:06.901Z,98825.00
2019-04-04T02:32:34.990Z,98810.00
2019-04-04T02:35:03.267Z,98796.00
2019-04-04T02:37:31.315Z,98799.00
2019-04-04T02:39:59.312Z,98809.00
2019-04-04T02:42:27.667Z,98807.00
2019-04-04T02:44:55.670Z,98804.00
2019-04-04T02:47:23.695Z,98777.00
2019-04-04T02:49:51.691Z,98756.00
2019-04-04T02:52:19.860Z,98743.00
2019-04-04T02:54:47.925Z,98764.00
2019-04-04T02:57:16.470Z,98741.00
2019-04-04T02:59:52.842Z,98756.00
2019-04-04T03:02:19.799Z,98759.00
2019-04-04T03:04:47.981Z,98776.00
2019-04-04T03:07:16.058Z,98777.00
2019-04-04T03:09:44.114Z,98773.00
2019-04-04T03:12:12.106Z,98777.00
2019-04-04T03:14:40.167Z,98776.00
2019-04-04T03:17:08.232Z,98768.00
2019-04-04T03:19:36.202Z,98771.00
2019-04-04T03:22:04.161Z,98776.00
2019-04-04T03:24:32.139Z,98783.00
2019-04-04T03:27:00.331Z,98771.00
2019-04-04T03:29:29.051Z,98757.00
2019-04-04T03:31:57.628Z,98769.00
2019-04-04T03:34:25.726Z,98768.00
2019-04-04T03:36:53.776Z,98767.00
2019-04-04T03:39:21.702Z,98778.00
2019-04-04T03:41:49.748Z,98783.00
2019-04-04T03:44:19.904Z,98777.00
2019-04-04T03:46:47.571Z,98767.00
2019-04-04T03:49:15.617Z,98762.00
2019-04-04T03:51:43.566Z,98753.00
2019-04-04T03:54:14.928Z,98755.00
2019-04-04T03:56:43.070Z,98752.00
2019-04-04T03:59:11.055Z,98736.00
2019-04-04T04:01:39.247Z,98720.00
2019-04-04T04:04:07.300Z,98702.00
2019-04-04T04:06:35.298Z,98686.00
2019-04-04T04:09:05.855Z,98675.00
2019-04-04T04:11:34.660Z,98666.00
2019-04-04T04:14:04.137Z,98661.00
2019-04-04T04:16:34.917Z,98677.00
2019-04-04T04:19:02.235Z,98682.00
2019-04-04T04:21:30.368Z,98706.00
2019-04-04T04:23:58.489Z,98734.00
2019-04-04T04:26:26.683Z,98732.00
2019-04-04T04:28:54.699Z,98728.00
2019-04-04T04:31:22.688Z,98706.00
2019-04-04T04:33:50.697Z,98696.00
2019-04-04T04:36:18.849Z,98700.00
2019-04-04T04:38:46.797Z,98685.00
2019-04-04T04:41:14.911Z,98672.00
2019-04-04T04:43:42.873Z,98663.00
2019-04-04T04:46:10.857Z,98680.00
2019-04-04T04:48:38.982Z,98684.00
2019-04-04T04:51:07.163Z,98682.00
2019-04-04T04:53:35.155Z,98678.00
2019-04-04T04:56:08.874Z,98698.00
2019-04-04T04:58:37.429Z,98704.00
2019-04-04T05:01:19.182Z,98699.00
2019-04-04T05:03:47.376Z,98698.00
2019-04-04T05:06:16.394Z,98703.00
2019-04-04T05:08:45.898Z,98718.00
2019-04-04T05:11:14.614Z,98706.00
2019-04-04T05:13:43.310Z,98696.00
2019-04-04T05:16:13.098Z,98685.00
2019-04-04T05:18:41.985Z,98676.00
2019-04-04T05:21:10.034Z,98685.00
2019-04-04T05:23:38.429Z,98682.00
2019-04-04T05:26:09.577Z,98671.00
2019-04-04T05:28:37.036Z,98666.00
2019-04-04T05:31:05.185Z,98672.00
2019-04-04T05:33:33.277Z,98687.00
2019-04-04T05:36:01.240Z,98688.00
2019-04-04T05:38:29.311Z,98686.00
2019-04-04T05:40:57.390Z,98687.00
2019-04-04T05:43:25.457Z,98704.00
2019-04-04T05:45:53.481Z,98703.00
2019-04-04T05:48:21.564Z,98697.00
2019-04-04T05:50:49.945Z,98688.00
2019-04-04T05:53:17.976Z,98690.00
2019-04-04T05:55:46.015Z,98690.00
2019-04-04T05:58:14.066Z,98671.00
2019-04-04T06:00:45.124Z,98676.00
2019-04-04T06:03:15.167Z,98691.00
2019-04-04T06:05:45.887Z,98687.00
2019-04-04T06:08:14.477Z,98695.00
2019-04-04T06:10:42.843Z,98692.00
2019-04-04T06:13:10.825Z,98689.00
2019-04-04T06:15:38.952Z,98694.00
2019-04-04T06:18:06.906Z,98703.00
2019-04-04T06:20:34.878Z,98691.00
2019-04-04T06:23:02.833Z,98684.00
2019-04-04T06:25:34.331Z,98689.00
2019-04-04T06:28:01.031Z,98679.00
2019-04-04T06:30:42.260Z,98679.00
2019-04-04T06:32:59.204Z,98678.00
2019-04-04T06:35:27.194Z,98669.00
2019-04-04T06:37:55.188Z,98674.00
2019-04-04T06:40:24.012Z,98679.00
2019-04-04T06:42:52.980Z,98684.00
2019-04-04T06:45:21.137Z,98682.00
2019-04-04T06:47:50.517Z,98677.00
2019-04-04T06:50:18.734Z,98681.00
2019-04-04T06:52:48.266Z,98695.00
2019-04-04T06:55:16.739Z,98702.00
2019-04-04T06:57:47.540Z,98704.00
2019-04-04T07:00:16.505Z,98700.00
2019-04-04T07:02:47.157Z,98687.00
2019-04-04T07:05:14.685Z,98676.00
2019-04-04T07:07:43.863Z,98681.00
2019-04-04T07:10:12.559Z,98681.00
2019-04-04T07:12:40.686Z,98681.00
2019-04-04T07:15:12.480Z,98668.00
2019-04-04T07:17:41.194Z,98662.00
2019-04-04T07:20:09.415Z,98665.00
2019-04-04T07:22:37.459Z,98664.00
2019-04-04T07:25:06.918Z,98668.00
2019-04-04T07:27:35.048Z,98681.00
2019-04-04T07:30:03.533Z,98675.00
2019-04-04T07:32:32.859Z,98680.00
2019-04-04T07:35:00.924Z,98678.00
2019-04-04T07:37:28.982Z,98679.00
2019-04-04T07:39:56.968Z,98686.00
2019-04-04T07:42:30.485Z,98699.00
2019-04-04T07:44:58.666Z,98708.00
2019-04-04T07:47:46.660Z,98698.00
2019-04-04T07:50:13.166Z,98701.00
2019-04-04T07:52:42.251Z,98694.00
2019-04-04T07:55:11.022Z,98697.00
2019-04-04T07:57:40.178Z,98700.00
2019-04-04T08:00:49.360Z,98690.00
2019-04-04T08:03:44.615Z,98692.00
2019-04-04T08:06:12.574Z,98701.00
2019-04-04T08:08:40.779Z,98709.00
2019-04-04T08:11:09.079Z,98717.00
2019-04-04T08:13:37.163Z,98716.00
2019-04-04T08:16:05.810Z,98706.00
2019-04-04T08:19:38.116Z,98704.00
2019-04-04T08:22:08.365Z,98689.00
2019-04-04T08:24:36.432Z,98691.00
2019-04-04T08:27:04.807Z,98683.00
2019-04-04T08:29:32.948Z,98685.00
2019-04-04T08:32:01.036Z,98683.00
2019-04-04T08:34:29.547Z,98678.00
2019-04-04T08:36:57.743Z,98673.00
2019-04-04T08:39:25.729Z,98670.00
2019-04-04T08:41:53.881Z,98670.00
2019-04-04T08:44:22.116Z,98676.00
2019-04-04T08:46:50.307Z,98671.00
2019-04-04T08:49:18.534Z,98658.00
2019-04-04T08:51:47.397Z,98658.00
2019-04-04T08:54:16.311Z,98660.00
2019-04-04T08:56:44.418Z,98661.00
2019-04-04T08:59:13.775Z,98662.00
2019-04-04T09:01:41.842Z,98669.00
2019-04-04T09:04:09.875Z,98673.00
2019-04-04T09:06:39.643Z,98694.00
2019-04-04T09:09:07.926Z,98706.00
2019-04-04T09:11:36.495Z,98701.00
2019-04-04T09:14:07.290Z,98707.00
2019-04-04T09:16:35.711Z,98681.00
2019-04-04T09:19:09.198Z,98681.00
2019-04-04T09:21:37.665Z,98683.00
2019-04-04T09:24:05.812Z,98663.00
2019-04-04T09:26:37.183Z,98675.00
2019-04-04T09:29:05.181Z,98679.00
2019-04-04T09:31:33.182Z,98686.00
2019-04-04T09:34:01.731Z,98673.00
2019-04-04T09:36:34.079Z,98669.00
2019-04-04T09:39:05.024Z,98662.00
2019-04-04T09:41:34.439Z,98666.00
2019-04-04T09:44:05.724Z,98664.00
2019-04-04T09:46:32.543Z,98656.00
2019-04-04T09:49:01.729Z,98649.00
2019-04-04T09:51:29.850Z,98651.00
2019-04-04T09:53:58.189Z,98649.00
2019-04-04T09:56:26.182Z,98647.00
2019-04-04T09:58:55.033Z,98637.00
2019-04-04T10:01:23.219Z,98638.00
2019-04-04T10:03:51.518Z,98624.00
2019-04-04T10:06:20.573Z,98624.00
2019-04-04T10:08:49.275Z,98628.00
2019-04-04T10:11:19.380Z,98640.00
2019-04-04T10:13:47.604Z,98643.00
2019-04-04T10:16:15.618Z,98639.00
2019-04-04T10:18:43.833Z,98641.00
2019-04-04T10:21:12.636Z,98654.00
2019-04-04T10:23:40.991Z,98664.00
2019-04-04T10:26:12.266Z,98677.00
2019-04-04T10:28:40.275Z,98683.00
2019-04-04T10:31:08.767Z,98680.00
2019-04-04T10:33:36.879Z,98690.00
2019-04-04T10:36:05.048Z,98685.00
2019-04-04T10:38:33.297Z,98676.00
2019-04-04T10:41:01.509Z,98684.00
2019-04-04T10:43:29.534Z,98683.00
2019-04-04T10:45:57.664Z,98691.00
2019-04-04T10:48:25.942Z,98695.00
2019-04-04T10:50:54.340Z,98702.00
2019-04-04T10:53:22.386Z,98700.00
2019-04-04T10:55:50.331Z,98708.00
2019-04-04T10:58:20.174Z,98707.00
2019-04-04T11:00:48.232Z,98717.00
2019-04-04T11:03:16.276Z,98713.00
2019-04-04T11:05:44.705Z,98708.00
2019-04-04T11:08:12.967Z,98697.00
2019-04-04T11:10:40.964Z,98687.00
2019-04-04T11:13:09.589Z,98693.00
2019-04-04T11:15:37.667Z,98707.00
2019-04-04T11:18:06.651Z,98702.00
2019-04-04T11:20:34.742Z,98704.00
2019-04-04T11:23:02.850Z,98697.00
2019-04-04T11:25:30.918Z,98694.00
2019-04-04T11:27:58.970Z,98689.00
2019-04-04T11:30:27.049Z,98692.00
2019-04-04T11:32:55.111Z,98690.00
2019-04-04T11:35:23.235Z,98701.00
2019-04-04T11:37:51.479Z,98713.00
2019-04-04T11:40:19.628Z,98697.00
2019-04-04T11:42:47.628Z,98688.00
2019-04-04T11:45:15.589Z,98679.00
2019-04-04T11:47:43.536Z,98676.00
2019-04-04T11:50:11.847Z,98685.00
2019-04-04T11:52:39.898Z,98688.00
2019-04-04T11:55:07.826Z,98702.00
2019-04-04T11:57:36.424Z,98707.00
2019-04-04T12:00:05.209Z,98694.00
2019-04-04T12:02:33.270Z,98688.00
2019-04-04T12:05:01.618Z,98691.00
2019-04-04T12:07:30.586Z,98706.00
2019-04-04T12:10:07.468Z,98715.00
2019-04-04T12:12:28.771Z,98720.00
2019-04-04T12:14:56.749Z,98722.00
2019-04-04T12:17:24.750Z,98720.00
2019-04-04T12:19:52.723Z,98715.00
2019-04-04T12:22:20.865Z,98703.00
2019-04-04T12:24:49.650Z,98708.00
2019-04-04T12:27:18.315Z,98718.00
2019-04-04T12:29:46.342Z,98718.00
2019-04-04T12:32:14.441Z,98742.00
2019-04-04T12:34:42.409Z,98750.00
2019-04-04T12:37:10.372Z,98749.00
2019-04-04T12:39:38.401Z,98756.00
2019-04-04T12:42:06.599Z,98770.00
2019-04-04T12:44:34.559Z,98784.00
2019-04-04T12:47:03.667Z,98756.00
2019-04-04T12:49:31.698Z,98751.00
2019-04-04T12:51:59.698Z,98761.00
2019-04-04T12:54:27.716Z,98755.00
2019-04-04T12:56:55.803Z,98760.00
2019-04-04T12:59:23.990Z,98751.00
2019-04-04T13:01:52.200Z,98772.00
2019-04-04T13:04:31.151Z,98784.00
2019-04-04T13:06:50.131Z,98791.00
2019-04-04T13:09:18.441Z,98798.00
2019-04-04T13:11:46.631Z,98804.00
2019-04-04T13:14:14.840Z,98797.00
2019-04-04T13:16:42.908Z,98792.00
2019-04-04T13:19:10.898Z,98784.00
2019-04-04T13:21:39.092Z,98798.00
2019-04-04T13:24:07.520Z,98805.00
2019-04-04T13:26:35.750Z,98820.00
2019-04-04T13:29:04.045Z,98809.00
2019-04-04T13:31:32.236Z,98809.00
2019-04-04T13:34:00.421Z,98822.00
2019-04-04T13:36:28.448Z,98831.00
2019-04-04T13:38:56.541Z,98821.00
2019-04-04T13:41:25.024Z,98817.00
2019-04-04T13:43:54.370Z,98822.00
2019-04-04T13:46:28.095Z,98805.00
2019-04-04T13:48:55.414Z,98794.00
2019-04-04T13:51:25.559Z,98808.00
2019-04-04T13:53:53.746Z,98819.00
2019-04-04T13:56:22.204Z,98841.00
2019-04-04T13:58:50.244Z,98845.00
2019-04-04T14:01:18.271Z,98844.00
2019-04-04T14:03:46.351Z,98831.00
2019-04-04T14:06:14.904Z,98828.00
2019-04-04T14:08:45.680Z,98838.00
2019-04-04T14:11:13.109Z,98847.00
2019-04-04T14:13:41.187Z,98859.00
2019-04-04T14:16:09.222Z,98875.00
2019-04-04T14:18:39.900Z,98887.00
2019-04-04T14:21:07.468Z,98886.00
2019-04-04T14:23:38.590Z,98883.00
2019-04-04T14:26:06.878Z,98882.00
2019-04-04T14:28:36.143Z,98885.00
2019-04-04T14:31:04.965Z,98893.00
2019-04-04T14:33:34.012Z,98878.00
2019-04-04T14:36:02.357Z,98870.00
2019-04-04T14:38:30.586Z,98861.00
2019-04-04T14:41:10.690Z,98860.00
2019-04-04T14:43:29.971Z,98857.00
2019-04-04T14:45:58.529Z,98845.00
2019-04-04T14:48:26.991Z,98845.00
2019-04-04T14:50:55.167Z,98841.00
2019-04-04T14:53:24.127Z,98841.00
2019-04-04T14:55:53.787Z,98839.00
2019-04-04T14:58:21.976Z,98857.00
2019-04-04T15:00:50.160Z,98863.00
2019-04-04T15:03:18.427Z,98874.00
2019-04-04T15:05:46.641Z,98890.00
2019-04-04T15:08:14.889Z,98902.00
2019-04-04T15:10:43.026Z,98888.00
2019-04-04T15:13:11.219Z,98889.00
2019-04-04T15:16:11.072Z,98892.00
2019-04-04T15:18:47.051Z,98895.00
2019-04-04T15:21:16.376Z,98907.00
2019-04-04T15:23:44.826Z,98896.00
2019-04-04T15:26:13.133Z,98895.00
2019-04-04T15:28:45.036Z,98900.00
2019-04-04T15:31:13.050Z,98896.00
2019-04-04T15:33:41.113Z,98891.00
2019-04-04T15:36:09.483Z,98895.00
2019-04-04T15:38:37.645Z,98911.00
2019-04-04T15:41:06.063Z,98933.00
2019-04-04T15:43:34.616Z,98942.00
2019-04-04T15:46:02.765Z,98939.00
2019-04-04T15:48:30.962Z,98940.00
2019-04-04T15:50:59.000Z,98948.00
2019-04-04T15:53:27.185Z,98950.00
2019-04-04T15:55:55.230Z,98967.00
2019-04-04T15:58:23.521Z,98965.00
2019-04-04T16:00:51.951Z,98964.00
2019-04-04T16:03:20.163Z,98968.00
2019-04-04T16:05:48.258Z,98965.00
2019-04-04T16:08:16.518Z,98962.00
2019-04-04T16:10:44.848Z,98970.00
2019-04-04T16:13:13.215Z,98949.00
2019-04-04T16:15:41.513Z,98952.00
2019-04-04T16:18:09.917Z,98950.00
2019-04-04T16:20:38.275Z,98964.00
2019-04-04T16:23:06.895Z,98963.00
2019-04-04T16:25:35.428Z,98965.00
2019-04-04T16:28:04.257Z,98967.00
2019-04-04T16:30:32.553Z,98978.00
2019-04-04T16:33:01.666Z,98981.00
2019-04-04T16:35:29.779Z,98983.00
2019-04-04T16:37:57.969Z,98981.00
2019-04-04T16:40:26.333Z,98977.00
2019-04-04T16:42:54.525Z,98967.00
2019-04-04T16:45:22.852Z,98970.00
2019-04-04T16:47:51.101Z,98972.00
2019-04-04T16:50:19.274Z,98977.00
2019-04-04T16:52:47.490Z,98987.00
2019-04-04T16:55:16.118Z,98983.00
2019-04-04T16:57:44.183Z,98988.00
2019-04-04T17:00:16.862Z,98987.00
2019-04-04T17:02:45.041Z,98976.00
2019-04-04T17:05:13.383Z,98980.00
2019-04-04T17:07:41.890Z,98990.00
2019-04-04T17:10:10.651Z,98996.00
2019-04-04T17:12:39.602Z,99005.00
2019-04-04T17:15:08.350Z,99000.00
2019-04-04T17:17:36.571Z,99006.00
2019-04-04T17:20:06.116Z,99008.00
2019-04-04T17:22:34.587Z,99005.00
2019-04-04T17:25:02.966Z,99007.00
2019-04-04T17:27:32.269Z,99012.00
2019-04-04T17:30:00.564Z,99012.00
2019-04-04T17:32:28.685Z,99024.00
2019-04-04T17:34:57.102Z,99021.00
2019-04-04T17:37:25.773Z,99026.00
2019-04-04T17:39:54.596Z,99027.00
2019-04-04T17:42:30.131Z,99037.00
2019-04-04T17:44:53.626Z,99052.00
2019-04-04T17:47:22.434Z,99063.00
2019-04-04T17:49:50.674Z,99063.00
2019-04-04T17:52:19.440Z,99041.00
2019-04-04T17:54:47.856Z,99044.00
2019-04-04T17:57:16.792Z,99060.00
2019-04-04T17:59:45.028Z,99063.00
2019-04-04T18:02:13.284Z,99074.00
2019-04-04T18:04:48.575Z,99077.00
2019-04-04T18:07:13.045Z,99084.00
2019-04-04T18:09:41.446Z,99089.00
2019-04-04T18:12:09.649Z,99081.00
2019-04-04T18:14:37.851Z,99075.00
2019-04-04T18:17:06.172Z,99082.00
2019-04-04T18:19:34.264Z,99080.00
2019-04-04T18:22:02.595Z,99086.00
2019-04-04T18:24:30.924Z,99077.00
2019-04-04T18:26:59.418Z,99074.00
2019-04-04T18:29:27.736Z,99092.00
2019-04-04T18:31:56.109Z,99089.00
2019-04-04T18:34:24.549Z,99088.00
2019-04-04T18:36:53.057Z,99097.00
2019-04-04T18:39:21.380Z,99098.00
2019-04-04T18:41:49.870Z,99101.00
2019-04-04T18:44:18.487Z,99113.00
2019-04-04T18:46:47.180Z,99118.00
2019-04-04T18:49:15.485Z,99114.00
2019-04-04T18:51:44.024Z,99126.00
2019-04-04T18:54:12.080Z,99129.00
2019-04-04T18:56:40.375Z,99127.00
2019-04-04T18:59:08.690Z,99134.00
2019-04-04T19:01:37.041Z,99138.00
2019-04-04T19:04:05.232Z,99143.00
2019-04-04T19:06:33.342Z,99149.00
2019-04-04T19:09:14.358Z,99140.00
2019-04-04T19:11:34.959Z,99143.00
2019-04-04T19:14:03.401Z,99137.00
2019-04-04T19:16:31.683Z,99156.00
2019-04-04T19:19:00.402Z,99146.00
2019-04-04T19:21:28.622Z,99142.00
2019-04-04T19:23:57.076Z,99149.00
2019-04-04T19:26:25.498Z,99145.00
2019-04-04T19:28:53.705Z,99146.00
2019-04-04T19:31:23.247Z,99148.00
2019-04-04T19:33:51.519Z,99158.00
2019-04-04T19:36:19.944Z,99157.00
2019-04-04T19:38:48.130Z,99175.00
2019-04-04T19:41:16.258Z,99174.00
2019-04-04T19:43:44.438Z,99175.00
2019-04-04T19:46:12.647Z,99162.00
2019-04-04T19:48:41.351Z,99157.00
2019-04-04T19:51:09.541Z,99159.00
2019-04-04T19:53:37.821Z,99168.00
2019-04-04T19:56:06.755Z,99182.00
2019-04-04T19:58:34.964Z,99202.00
2019-04-04T20:01:04.970Z,99191.00
2019-04-04T20:03:33.237Z,99192.00
2019-04-04T20:06:01.437Z,99200.00
2019-04-04T20:08:29.625Z,99194.00
2019-04-04T20:10:57.708Z,99202.00
2019-04-04T20:13:31.042Z,99208.00
2019-04-04T20:15:56.235Z,99197.00
2019-04-04T20:18:24.402Z,99206.00
2019-04-04T20:20:52.849Z,99210.00
2019-04-04T20:23:21.078Z,99209.00
2019-04-04T20:25:49.283Z,99200.00
2019-04-04T20:28:17.463Z,99212.00
2019-04-04T20:30:46.349Z,99199.00
2019-04-04T20:33:14.441Z,99219.00
2019-04-04T20:35:42.601Z,99224.00
2019-04-04T20:38:12.419Z,99227.00
2019-04-04T20:40:40.531Z,99218.00
2019-04-04T20:43:08.791Z,99226.00
2019-04-04T20:45:37.765Z,99227.00
2019-04-04T20:48:06.139Z,99224.00
2019-04-04T20:50:35.174Z,99204.00
2019-04-04T20:53:03.463Z,99196.00
2019-04-04T20:55:31.586Z,99204.00
2019-04-04T20:57:59.847Z,99214.00
2019-04-04T21:00:27.852Z,99211.00
2019-04-04T21:02:56.165Z,99204.00
2019-04-04T21:05:24.197Z,99198.00
2019-04-04T21:07:52.325Z,99199.00
2019-04-04T21:10:20.444Z,99206.00
2019-04-04T21:12:48.669Z,99209.00
2019-04-04T21:15:16.895Z,99205.00
2019-04-04T21:17:45.212Z,99215.00
2019-04-04T21:20:15.514Z,99211.00
2019-04-04T21:22:43.879Z,99215.00
2019-04-04T21:25:12.778Z,99213.00
2019-04-04T21:27:41.058Z,99223.00
2019-04-04T21:30:09.322Z,99212.00
2019-04-04T21:32:37.462Z,99221.00
2019-04-04T21:35:05.766Z,99215.00
2019-04-04T21:37:33.840Z,99211.00
2019-04-04T21:40:02.006Z,99214.00
2019-04-04T21:42:31.119Z,99217.00
2019-04-04T21:45:00.621Z,99213.00
2019-04-04T21:47:28.814Z,99217.00
2019-04-04T21:49:56.946Z,99232.00
2019-04-04T21:52:25.227Z,99241.00
2019-04-04T21:54:53.320Z,99241.00
2019-04-04T21:57:21.559Z,99258.00
2019-04-04T21:59:49.502Z,99249.00
2019-04-04T22:02:17.530Z,99251.00
2019-04-04T22:04:45.694Z,99258.00
2019-04-04T22:07:13.982Z,99271.00
2019-04-04T22:09:42.182Z,99270.00
2019-04-04T22:12:10.183Z,99267.00
2019-04-04T22:14:38.227Z,99269.00
2019-04-04T22:17:06.361Z,99271.00
2019-04-04T22:19:34.425Z,99277.00
2019-04-04T22:22:03.429Z,99272.00
2019-04-04T22:24:31.420Z,99260.00
2019-04-04T22:26:59.778Z,99270.00
2019-04-04T22:29:27.955Z,99269.00
2019-04-04T22:31:56.110Z,99255.00
2019-04-04T22:34:24.117Z,99270.00
2019-04-04T22:36:52.135Z,99267.00
2019-04-04T22:39:20.312Z,99260.00
2019-04-04T22:41:48.327Z,99253.00
2019-04-04T22:44:16.494Z,99259.00
2019-04-04T22:46:44.647Z,99257.00
2019-04-04T22:49:12.644Z,99263.00
2019-04-04T22:51:40.695Z,99255.00
2019-04-04T22:54:08.781Z,99261.00
2019-04-04T22:56:36.850Z,99265.00
2019-04-04T22:59:05.042Z,99274.00
2019-04-04T23:01:33.294Z,99283.00
2019-04-04T23:04:01.407Z,99289.00
2019-04-04T23:06:29.442Z,99284.00
2019-04-04T23:08:57.435Z,99279.00
2019-04-04T23:11:25.446Z,99279.00
2019-04-04T23:13:54.243Z,99273.00
2019-04-04T23:16:22.216Z,99278.00
2019-04-04T23:18:50.243Z,99285.00
2019-04-04T23:21:18.245Z,99283.00
2019-04-04T23:23:47.305Z,99286.00
2019-04-04T23:26:15.316Z,99297.00
2019-04-04T23:28:43.381Z,99312.00
2019-04-04T23:31:11.408Z,99312.00
2019-04-04T23:33:39.487Z,99311.00
2019-04-04T23:36:07.543Z,99318.00
2019-04-04T23:38:35.620Z,99318.00
2019-04-04T23:41:03.658Z,99322.00
2019-04-04T23:43:31.652Z,99324.00
2019-04-04T23:45:59.668Z,99320.00
2019-04-04T23:48:27.682Z,99325.00
2019-04-04T23:50:55.657Z,99323.00
2019-04-04T23:53:23.817Z,99327.00
2019-04-04T23:55:51.854Z,99327.00
2019-04-04T23:58:19.856Z,99331.00
